createdAt,value
2018-12-23T00:01:31.603Z,3.9
2018-12-23T00:16:30.513Z,3.8
2018-12-23T00:30:58.444Z,3.2
2018-12-23T00:46:13.792Z,3.1
2018-12-23T01:00:55.704Z,3.4
2018-12-23T01:15:58.253Z,3
2018-12-23T01:31:05.130Z,3.9
2018-12-23T01:46:03.899Z,4.6
2018-12-23T02:01:00.527Z,4
2018-12-23T02:16:33.540Z,4.4
2018-12-23T02:31:21.057Z,3
2018-12-23T02:46:26.402Z,3.3
2018-12-23T03:01:26.465Z,4
2018-12-23T03:16:29.353Z,3.2
2018-12-23T03:31:16.073Z,3.3
2018-12-23T03:46:23.064Z,3.4
2018-12-23T04:01:05.545Z,3.3
2018-12-23T04:16:18.367Z,3.3
2018-12-23T04:31:19.234Z,3.5
2018-12-23T04:46:08.247Z,3.5
2018-12-23T05:01:07.932Z,3.4
2018-12-23T05:16:11.268Z,3.7
2018-12-23T05:31:05.458Z,4
2018-12-23T05:46:02.163Z,4
2018-12-23T06:01:01.751Z,3.7
2018-12-23T06:16:44.267Z,4.8
2018-12-23T06:31:40.279Z,4.3
2018-12-23T06:46:21.510Z,3.2
2018-12-23T07:01:04.370Z,2.6
2018-12-23T07:16:13.671Z,3.2
2018-12-23T07:31:50.131Z,3.6
2018-12-23T07:46:42.247Z,3.1
2018-12-23T07:50:49.616Z,3.1
2018-12-23T08:00:58.746Z,2.9
2018-12-23T08:16:15.279Z,3.5
2018-12-23T08:31:33.618Z,3.7
2018-12-23T08:46:07.564Z,3.2
2018-12-23T09:01:16.452Z,4.4
2018-12-23T09:16:24.475Z,6.9
2018-12-23T09:31:19.690Z,12.6
2018-12-23T09:46:42.079Z,10.2
2018-12-23T10:01:44.689Z,8.6
2018-12-23T10:16:40.517Z,9
2018-12-23T10:32:01.819Z,13.5
2018-12-23T10:46:42.371Z,11.6
2018-12-23T11:01:12.993Z,8.9
2018-12-23T11:16:28.844Z,11.5
2018-12-23T11:31:39.762Z,9.1
2018-12-23T11:47:03.484Z,10.1
2018-12-23T12:01:22.163Z,8.3
2018-12-23T12:16:44.871Z,9.4
2018-12-23T12:32:02.558Z,10.8
2018-12-23T12:46:27.231Z,9.8
2018-12-23T13:01:37.708Z,7.8
2018-12-23T13:16:26.158Z,9.5
2018-12-23T13:31:33.892Z,8.2
2018-12-23T13:46:55.054Z,8.1
2018-12-23T14:01:23.127Z,6.4
2018-12-23T14:17:03.617Z,5.5
2018-12-23T14:31:32.029Z,6.3
2018-12-23T14:46:45.176Z,5.6
2018-12-23T15:02:04.530Z,4.8
2018-12-23T15:16:23.878Z,6.7
2018-12-23T15:32:06.878Z,7.4
2018-12-23T15:46:25.277Z,7.8
2018-12-23T16:02:00.854Z,8
2018-12-23T16:16:22.085Z,6.9
2018-12-23T16:31:52.578Z,7.4
2018-12-23T16:46:40.066Z,6.3
2018-12-23T17:01:28.419Z,9.9
2018-12-23T17:17:08.797Z,5.7
2018-12-23T17:31:50.733Z,5.8
2018-12-23T17:46:48.246Z,6.4
2018-12-23T18:01:44.194Z,7
2018-12-23T18:17:15.149Z,4.8
2018-12-23T18:31:46.288Z,7.6
2018-12-23T18:47:15.664Z,7.5
2018-12-23T19:01:56.893Z,4.9
2018-12-23T19:17:32.179Z,6.2
2018-12-23T19:32:23.847Z,6.1
2018-12-23T19:47:03.008Z,6.3
2018-12-23T20:01:56.196Z,7.3
2018-12-23T20:17:17.551Z,6.3
2018-12-23T20:31:49.938Z,6.2
2018-12-23T20:47:17.945Z,5
2018-12-23T21:01:50.565Z,6.2
2018-12-23T21:17:05.806Z,6.4
2018-12-23T21:32:38.404Z,6
2018-12-23T21:46:58.766Z,5.4
2018-12-23T22:02:43.247Z,4.9
2018-12-23T22:17:29.612Z,4.9
2018-12-23T22:32:36.543Z,4.6
2018-12-23T22:47:05.839Z,3.8
2018-12-23T23:02:39.118Z,5
2018-12-23T23:17:45.533Z,3.4
2018-12-23T23:32:03.111Z,3.3
2018-12-23T23:47:32.079Z,3
